Time;durP1;ratioP1;P1;durP2;ratioP2;P2;SDS_P1;SDS_P2;PMS_P1;PMS_P2;Temp;Humidity;BMP_temperature;BMP_pressure;BME280_temperature;BME280_humidity;BME280_pressure;Samples;Min_cycle;Max_cycle;Signal;HPM_P1;HPM_P2
2022/08/08 00:01:39;;;;;;;7.15;2.67;;;;;;;16.79;48.37;101635.19;5026717;28;20470;-56
2022/08/08 00:04:35;;;;;;;4.37;3.00;;;;;;;16.76;48.11;101641.59;5038562;28;20048;-58
2022/08/08 00:07:14;;;;;;;3.17;2.42;;;;;;;16.75;47.93;101631.91;5022199;28;20497;-58
2022/08/08 00:09:59;;;;;;;10.55;2.45;;;;;;;16.75;48.20;101636.34;5028237;28;20046;-57
2022/08/08 00:12:34;;;;;;;6.10;3.17;;;;;;;16.74;48.17;101632.84;5036689;28;20041;-56
2022/08/08 00:15:08;;;;;;;3.00;2.50;;;;;;;16.75;48.07;101631.03;5024366;28;20049;-57
2022/08/08 00:17:54;;;;;;;4.57;3.10;;;;;;;16.71;48.59;101633.91;5027425;28;20528;-58
2022/08/08 00:20:50;;;;;;;3.90;2.97;;;;;;;16.69;48.66;101630.47;5027863;28;20412;-59
2022/08/08 00:23:40;;;;;;;4.78;2.72;;;;;;;16.66;48.74;101632.47;5024567;28;20041;-58
2022/08/08 00:26:25;;;;;;;5.45;2.60;;;;;;;16.64;48.66;101627.28;5032834;28;20359;-57
2022/08/08 00:29:10;;;;;;;5.80;2.47;;;;;;;16.63;49.01;101630.06;5032040;28;20060;-57
2022/08/08 00:31:45;;;;;;;4.80;3.00;;;;;;;16.61;49.37;101635.44;5033211;28;20049;-55
2022/08/08 00:38:11;;;;;;;4.03;2.35;;;;;;;16.51;50.24;101633.53;5032759;28;20497;-56
2022/08/08 00:41:12;;;;;;;3.97;2.53;;;;;;;16.44;50.28;101644.59;5030497;28;20120;-55
2022/08/08 00:44:05;;;;;;;7.18;3.00;;;;;;;16.38;49.92;101638.81;5042416;28;20068;-56
2022/08/08 00:47:01;;;;;;;3.60;2.55;;;;;;;16.32;50.31;101636.59;5040329;28;20049;-56
2022/08/08 00:50:17;;;;;;;5.10;2.50;;;;;;;16.24;50.46;101642.41;5020191;28;20089;-58
2022/08/08 00:52:55;;;;;;;9.27;2.78;;;;;;;16.21;50.61;101647.94;5038581;28;20052;-56
2022/08/08 00:55:46;;;;;;;2.90;2.28;;;;;;;16.19;50.65;101641.88;5039043;28;20050;-56
2022/08/08 00:58:33;;;;;;;4.32;2.63;;;;;;;16.16;50.92;101640.25;5041914;28;20117;-57
2022/08/08 01:01:13;;;;;;;8.77;3.05;;;;;;;16.13;51.09;101640.47;5037504;28;20050;-56
2022/08/08 01:04:35;;;;;;;3.75;2.60;;;;;;;16.11;51.84;101647.69;5038989;28;20045;-59
2022/08/08 01:08:00;;;;;;;6.20;2.78;;;;;;;16.06;52.19;101647.13;5035809;28;20056;-57
2022/08/08 01:10:42;;;;;;;6.82;2.30;;;;;;;16.02;51.71;101640.31;5034378;28;20057;-56
2022/08/08 01:13:47;;;;;;;6.32;2.58;;;;;;;16.01;51.64;101637.75;5038034;28;20069;-55
2022/08/08 01:16:45;;;;;;;7.50;2.70;;;;;;;15.98;51.40;101630.84;5030467;28;20054;-57
2022/08/08 01:19:48;;;;;;;4.22;2.67;;;;;;;15.96;51.50;101635.41;5029952;28;20063;-58
2022/08/08 01:23:04;;;;;;;4.05;2.83;;;;;;;15.93;51.82;101638.25;5027957;28;20172;-58
2022/08/08 01:26:00;;;;;;;4.82;2.42;;;;;;;15.88;52.18;101640.38;5031809;28;20533;-59
2022/08/08 01:28:43;;;;;;;5.47;2.47;;;;;;;15.86;52.02;101637.81;5036716;28;20053;-57
2022/08/08 01:31:37;;;;;;;5.75;2.65;;;;;;;15.82;52.00;101631.00;5033409;28;20038;-58
2022/08/08 01:34:45;;;;;;;3.20;2.17;;;;;;;15.79;52.78;101633.00;5027902;28;20651;-56
2022/08/08 01:37:27;;;;;;;6.00;2.67;;;;;;;15.76;52.33;101630.53;5034855;28;20053;-57
2022/08/08 01:40:23;;;;;;;6.55;2.38;;;;;;;15.74;52.19;101640.41;5036170;28;20048;-58
2022/08/08 01:43:33;;;;;;;7.68;2.53;;;;;;;15.69;52.61;101633.59;5039179;28;20057;-59
2022/08/08 01:46:26;;;;;;;6.68;2.88;;;;;;;15.67;52.78;101635.50;5032850;28;20053;-57
2022/08/08 01:49:02;;;;;;;4.75;2.40;;;;;;;15.64;52.79;101630.38;5030097;28;20052;-59
2022/08/08 01:51:50;;;;;;;4.55;2.80;;;;;;;15.61;52.82;101632.34;5035509;28;20041;-59
2022/08/08 01:55:05;;;;;;;4.68;2.33;;;;;;;15.59;52.79;101627.16;5035104;28;20144;-58
2022/08/08 01:58:18;;;;;;;3.65;2.58;;;;;;;15.56;52.84;101624.69;5039960;28;20049;-58
2022/08/08 02:01:25;;;;;;;3.42;2.35;;;;;;;15.55;53.07;101622.13;5034083;28;20052;-59
2022/08/08 02:04:42;;;;;;;4.72;2.58;;;;;;;15.52;53.16;101625.81;5037008;28;20049;-59
2022/08/08 02:07:24;;;;;;;4.25;2.70;;;;;;;15.51;53.22;101620.63;5028019;28;20053;-57
2022/08/08 02:10:49;;;;;;;5.57;2.75;;;;;;;15.51;53.10;101620.63;5036485;28;20053;-55
2022/08/08 02:13:24;;;;;;;7.32;3.22;;;;;;;15.47;53.02;101614.66;5026295;28;20103;-60
2022/08/08 02:16:27;;;;;;;4.65;3.03;;;;;;;15.45;53.41;101614.75;5030818;28;20049;-58
2022/08/08 02:19:28;;;;;;;5.38;2.20;;;;;;;15.41;53.45;101615.06;5031240;28;20060;-60
2022/08/08 02:22:41;;;;;;;7.30;2.75;;;;;;;15.37;53.43;101619.69;5021574;28;20395;-58
2022/08/08 02:25:37;;;;;;;6.75;2.80;;;;;;;15.35;53.82;101616.28;5029954;28;20060;-58
2022/08/08 02:28:20;;;;;;;4.20;2.78;;;;;;;15.33;53.78;101618.19;5033394;28;20081;-59
2022/08/08 02:31:07;;;;;;;3.05;2.58;;;;;;;15.32;54.08;101618.28;5035735;28;20540;-57
2022/08/08 02:34:18;;;;;;;7.38;3.00;;;;;;;15.30;53.82;101625.47;5029624;28;20465;-58
2022/08/08 02:37:24;;;;;;;5.80;2.65;;;;;;;15.29;53.74;101624.63;5023864;28;20056;-59
2022/08/08 02:40:34;;;;;;;5.60;2.80;;;;;;;15.28;54.30;101622.09;5034425;28;20049;-56
2022/08/08 02:43:44;;;;;;;3.75;2.55;;;;;;;15.26;53.88;101622.16;5037303;28;20439;-59
2022/08/08 02:46:45;;;;;;;4.32;2.80;;;;;;;15.22;54.26;101623.31;5030784;28;20057;-56
2022/08/08 02:49:34;;;;;;;5.00;3.15;;;;;;;15.20;54.33;101620.75;5031946;28;20053;-56
2022/08/08 02:52:32;;;;;;;4.18;2.60;;;;;;;15.18;54.07;101625.31;5036651;28;20173;-59
2022/08/08 02:55:26;;;;;;;9.52;3.13;;;;;;;15.16;54.27;101629.84;5025477;28;20072;-58
2022/08/08 02:58:09;;;;;;;4.00;2.78;;;;;;;15.12;54.72;101620.38;5027753;28;20054;-57
2022/08/08 03:01:02;;;;;;;6.18;2.25;;;;;;;15.08;54.96;101624.16;5025446;28;20057;-58
2022/08/08 03:04:08;;;;;;;5.57;2.92;;;;;;;15.04;55.34;101624.44;5028655;28;20057;-56
2022/08/08 03:07:23;;;;;;;5.35;2.88;;;;;;;15.02;55.20;101629.00;5027095;28;20042;-59
2022/08/08 03:10:24;;;;;;;5.03;3.85;;;;;;;15.01;55.22;101624.66;5034710;28;20067;-56
2022/08/08 03:13:41;;;;;;;4.55;2.72;;;;;;;15.01;55.68;101630.81;5034870;28;20596;-57
2022/08/08 03:16:54;;;;;;;4.32;3.00;;;;;;;14.98;55.48;101638.94;5029052;28;20071;-55
2022/08/08 03:19:43;;;;;;;6.78;2.78;;;;;;;14.93;55.19;101631.25;5011548;28;20540;-55
2022/08/08 03:22:17;;;;;;;6.07;3.30;;;;;;;14.90;55.36;101639.44;5013939;28;20049;-56
2022/08/08 03:25:05;;;;;;;5.13;2.88;;;;;;;14.87;55.37;101641.41;5033515;28;20369;-53
2022/08/08 03:27:56;;;;;;;6.85;2.88;;;;;;;14.86;55.51;101642.31;5031467;28;20103;-57
2022/08/08 03:30:24;;;;;;;7.43;3.00;;;;;;;14.85;55.39;101644.13;5028836;28;20437;-56
2022/08/08 03:35:58;;;;;;;5.40;3.10;;;;;;;14.84;55.85;101641.56;5019307;28;20140;-55
2022/08/08 03:38:25;;;;;;;5.10;3.00;;;;;;;14.85;55.62;101643.28;5031541;28;20073;-57
2022/08/08 03:41:12;;;;;;;4.70;2.80;;;;;;;14.85;55.63;101643.28;5029149;28;20057;-56
2022/08/08 03:43:59;;;;;;;6.72;3.55;;;;;;;14.84;55.85;101644.22;5036633;28;20053;-54
2022/08/08 03:46:26;;;;;;;6.57;3.88;;;;;;;14.84;55.95;101642.44;5034906;28;20053;-54
2022/08/08 03:49:01;;;;;;;7.72;3.08;;;;;;;14.85;55.96;101645.94;5026196;28;20481;-53
2022/08/08 03:51:55;;;;;;;6.75;3.30;;;;;;;14.87;56.03;101646.69;5033382;28;20049;-54
2022/08/08 03:54:23;;;;;;;4.03;2.97;;;;;;;14.87;56.18;101649.34;5030514;28;20056;-56
2022/08/08 03:57:15;;;;;;;7.35;2.97;;;;;;;14.87;56.39;101646.69;5032219;28;20057;-53
2022/08/08 04:00:13;;;;;;;6.57;3.15;;;;;;;14.87;56.67;101655.50;5034111;28;20064;-51
2022/08/08 04:03:05;;;;;;;5.80;2.85;;;;;;;14.88;56.42;101649.25;5034263;28;20056;-52
2022/08/08 04:05:38;;;;;;;6.13;3.33;;;;;;;14.88;56.26;101643.94;5024487;28;20064;-50
2022/08/08 04:08:17;;;;;;;6.60;2.90;;;;;;;14.90;56.36;101655.34;5034406;28;20524;-53
2022/08/08 04:11:02;;;;;;;8.63;3.40;;;;;;;14.90;56.29;101657.09;5023158;28;20404;-55
2022/08/08 04:13:37;;;;;;;12.57;3.95;;;;;;;14.91;56.38;101658.84;5036587;28;20083;-54
2022/08/08 04:16:25;;;;;;;19.90;3.95;;;;;;;14.92;56.31;101658.72;5030417;28;20425;-50
2022/08/08 04:19:08;;;;;;;11.07;3.25;;;;;;;14.94;56.34;101661.28;5022155;28;20060;-55
2022/08/08 04:21:51;;;;;;;26.02;4.43;;;;;;;14.97;56.28;101665.56;5033450;28;20421;-58
2022/08/08 04:24:21;;;;;;;25.25;5.15;;;;;;;15.04;56.81;101661.56;5025171;28;20053;-54
2022/08/08 04:26:57;;;;;;;27.67;4.25;;;;;;;15.15;57.19;101669.72;5035311;28;20163;-53
2022/08/08 04:29:26;;;;;;;34.38;4.93;;;;;;;15.21;56.80;101666.69;5032639;28;20053;-53
2022/08/08 04:31:53;;;;;;;28.95;4.50;;;;;;;15.30;56.44;101667.91;5039804;28;20447;-53
2022/08/08 04:34:26;;;;;;;30.27;5.28;;;;;;;15.35;55.87;101676.44;5036630;28;20055;-55
2022/08/08 04:37:13;;;;;;;39.00;5.35;;;;;;;15.41;55.99;101678.72;5023340;28;20049;-55
2022/08/08 04:39:41;;;;;;;21.88;5.03;;;;;;;15.47;55.73;101683.66;5030935;28;20068;-54
2022/08/08 04:42:30;;;;;;;27.92;5.43;;;;;;;15.53;55.51;101680.59;5034954;28;20058;-57
2022/08/08 04:45:01;;;;;;;18.00;4.25;;;;;;;15.59;55.61;101687.34;5037549;28;20053;-58
2022/08/08 04:47:30;;;;;;;29.05;4.47;;;;;;;15.62;55.45;101689.78;5035243;28;20532;-55
2022/08/08 04:50:03;;;;;;;33.33;4.93;;;;;;;15.65;55.37;101685.16;5030293;28;20446;-57
2022/08/08 04:52:32;;;;;;;15.68;3.88;;;;;;;15.68;55.17;101682.34;5037115;28;20081;-54
2022/08/08 04:55:01;;;;;;;22.30;4.22;;;;;;;15.75;55.07;101690.75;5040224;28;20060;-56
2022/08/08 04:57:30;;;;;;;20.88;3.80;;;;;;;15.82;54.75;101693.88;5040027;28;20068;-57
2022/08/08 05:00:02;;;;;;;15.80;5.20;;;;;;;15.89;54.90;101696.03;5017140;28;20052;-52
2022/08/08 05:02:29;;;;;;;11.98;4.25;;;;;;;15.98;54.45;101693.72;5033083;28;20514;-57
2022/08/08 05:04:58;;;;;;;10.27;3.55;;;;;;;16.02;54.38;101695.25;5033199;28;20045;-54
2022/08/08 05:07:26;;;;;;;11.52;3.90;;;;;;;16.10;53.92;101698.25;5029596;28;20069;-54
2022/08/08 05:10:04;;;;;;;11.80;3.67;;;;;;;16.16;53.55;101689.88;5026295;28;20057;-56
2022/08/08 05:12:32;;;;;;;12.80;3.78;;;;;;;16.26;53.12;101692.81;5031699;28;20045;-56
2022/08/08 05:15:08;;;;;;;6.43;3.05;;;;;;;16.33;52.80;101692.28;5026556;28;20053;-54
2022/08/08 05:17:40;;;;;;;9.52;4.10;;;;;;;16.40;52.65;101690.09;5036845;28;20072;-54
2022/08/08 05:20:20;;;;;;;9.73;3.65;;;;;;;16.42;52.44;101694.31;5030667;28;20056;-52
2022/08/08 05:22:50;;;;;;;12.13;3.03;;;;;;;16.53;52.18;101700.75;5029496;28;20386;-56
2022/08/08 05:25:18;;;;;;;5.10;3.13;;;;;;;16.61;51.88;101696.59;5035159;28;20068;-55
2022/08/08 05:27:47;;;;;;;9.82;3.75;;;;;;;16.67;51.28;101692.69;5032817;28;20081;-55
2022/08/08 05:30:14;;;;;;;7.93;3.17;;;;;;;16.73;51.36;101694.13;5039421;28;20152;-57
2022/08/08 05:32:41;;;;;;;11.55;3.45;;;;;;;16.80;50.76;101696.28;5036006;28;20057;-52
2022/08/08 05:35:11;;;;;;;6.07;2.97;;;;;;;16.88;50.58;101696.56;5035744;28;20049;-54
2022/08/08 05:37:46;;;;;;;5.75;2.90;;;;;;;16.98;50.27;101695.97;5047291;28;20053;-55
2022/08/08 05:40:21;;;;;;;8.10;3.20;;;;;;;17.08;49.70;101697.03;5043390;28;20052;-53
2022/08/08 05:43:02;;;;;;;9.97;3.87;;;;;;;17.20;49.68;101701.47;5037772;28;20049;-54
2022/08/08 05:45:49;;;;;;;4.38;2.65;;;;;;;17.30;49.51;101694.56;5037751;28;20498;-53
2022/08/08 05:48:21;;;;;;;5.93;3.08;;;;;;;17.42;49.36;101700.81;5037466;28;20394;-54
2022/08/08 05:50:58;;;;;;;4.22;2.50;;;;;;;17.47;49.10;101696.03;5022853;28;20033;-55
2022/08/08 05:53:44;;;;;;;4.63;2.50;;;;;;;17.57;48.93;101698.91;5036846;28;20041;-56
2022/08/08 05:56:38;;;;;;;4.55;3.20;;;;;;;17.69;48.43;101706.84;5030578;28;20049;-57
2022/08/08 05:59:24;;;;;;;11.55;3.70;;;;;;;17.77;48.13;101702.81;5036720;28;20064;-58
2022/08/08 06:05:11;;;;;;;13.00;2.75;;;;;;;17.93;47.92;101712.28;5037926;28;20057;-53
2022/08/08 06:07:59;;;;;;;5.80;2.97;;;;;;;18.03;47.67;101707.13;5034747;28;20418;-54
2022/08/08 06:10:38;;;;;;;6.75;2.58;;;;;;;18.14;47.22;101709.81;5029442;28;20060;-55
2022/08/08 06:13:07;;;;;;;4.97;2.85;;;;;;;18.26;47.31;101713.41;5038469;28;20045;-51
2022/08/08 06:15:36;;;;;;;5.80;3.25;;;;;;;18.32;46.81;101707.63;5033195;28;20577;-59
2022/08/08 06:18:23;;;;;;;8.47;3.67;;;;;;;18.44;46.92;101714.72;5027716;28;20049;-57
2022/08/08 06:20:53;;;;;;;6.22;3.00;;;;;;;18.54;46.76;101714.03;5034062;28;20052;-58
2022/08/08 06:23:26;;;;;;;6.63;3.30;;;;;;;18.65;46.42;101714.91;5031428;28;20187;-58
2022/08/08 06:26:13;;;;;;;5.97;2.85;;;;;;;18.77;46.10;101721.16;5032745;28;20072;-55
2022/08/08 06:29:09;;;;;;;4.07;2.50;;;;;;;18.82;46.13;101715.47;5034720;28;20065;-56
2022/08/08 06:32:00;;;;;;;7.20;3.35;;;;;;;18.97;45.66;101716.97;5037765;28;20071;-53
2022/08/08 06:34:45;;;;;;;4.20;2.85;;;;;;;19.09;45.74;101715.16;5033884;28;20141;-57
2022/08/08 06:37:24;;;;;;;8.13;2.78;;;;;;;19.22;45.49;101723.91;5033601;28;20517;-58
2022/08/08 06:39:55;;;;;;;7.55;3.10;;;;;;;19.33;45.40;101718.59;5035200;28;20049;-55
2022/08/08 06:42:28;;;;;;;6.20;3.15;;;;;;;19.44;45.23;101721.25;5029475;28;20056;-55
2022/08/08 06:44:55;;;;;;;7.63;3.17;;;;;;;19.56;44.93;101715.94;5036848;28;20063;-57
2022/08/08 06:47:22;;;;;;;8.15;2.97;;;;;;;19.63;44.77;101718.03;5032594;28;20055;-53
2022/08/08 06:49:59;;;;;;;6.20;3.08;;;;;;;19.75;44.27;101720.69;5036428;28;20434;-53
2022/08/08 06:52:31;;;;;;;5.55;2.72;;;;;;;19.83;44.19;101728.94;5034026;28;20140;-56
2022/08/08 06:55:04;;;;;;;6.57;3.15;;;;;;;19.94;43.96;101720.91;5027944;28;20057;-56
2022/08/08 06:57:32;;;;;;;11.68;3.03;;;;;;;20.05;43.69;101720.88;5034289;28;20041;-52
2022/08/08 07:00:19;;;;;;;5.93;3.10;;;;;;;20.16;43.37;101733.38;5032184;28;20079;-56
2022/08/08 07:02:59;;;;;;;5.95;3.35;;;;;;;20.28;43.02;101728.84;5035924;28;20099;-59
2022/08/08 07:05:33;;;;;;;7.82;3.22;;;;;;;20.34;41.65;101729.16;5031458;28;20398;-54
2022/08/08 07:08:23;;;;;;;7.53;3.20;;;;;;;20.32;41.95;101728.47;5034528;28;20513;-57
2022/08/08 07:10:56;;;;;;;10.85;4.05;;;;;;;20.47;41.72;101726.34;5033028;28;20049;-54
2022/08/08 07:13:32;;;;;;;7.00;3.58;;;;;;;20.61;41.14;101733.25;5035426;28;20061;-55
2022/08/08 07:16:14;;;;;;;4.85;3.13;;;;;;;20.66;40.84;101733.69;5032531;28;20076;-58
2022/08/08 07:18:50;;;;;;;9.88;3.22;;;;;;;20.72;40.65;101734.03;5030317;28;20060;-55
2022/08/08 07:21:26;;;;;;;9.20;4.03;;;;;;;20.91;40.58;101738.69;5026576;28;20132;-52
2022/08/08 07:24:06;;;;;;;;;;;;;;;21.07;40.52;101730.19;5032672;28;20133;-54
2022/08/08 07:26:37;;;;;;;6.93;3.33;;;;;;;21.24;40.03;101731.41;5029501;28;19921;-58
2022/08/08 07:29:04;;;;;;;9.38;3.92;;;;;;;21.35;40.04;101725.19;5032250;28;20049;-57
2022/08/08 07:31:46;;;;;;;7.90;3.08;;;;;;;21.48;39.73;101732.00;5037241;28;20079;-54
2022/08/08 07:34:16;;;;;;;12.52;3.47;;;;;;;21.44;38.82;101730.56;5027740;28;20104;-58
2022/08/08 07:36:54;;;;;;;17.92;3.55;;;;;;;21.50;39.14;101734.53;5030538;28;20057;-58
2022/08/08 07:39:22;;;;;;;9.10;2.50;;;;;;;21.60;39.04;101732.75;5034103;28;20490;-54
2022/08/08 07:41:59;;;;;;;6.97;3.83;;;;;;;21.77;39.13;101725.88;5032830;28;20136;-55
2022/08/08 07:44:31;;;;;;;9.65;2.67;;;;;;;21.95;38.72;101736.81;5027528;28;20061;-55
2022/08/08 07:47:07;;;;;;;8.02;3.25;;;;;;;22.12;38.22;101740.69;5027413;28;20045;-52
2022/08/08 07:49:35;;;;;;;12.77;3.40;;;;;;;22.14;37.54;101739.56;5029138;28;20087;-56
2022/08/08 07:52:12;;;;;;;6.95;3.35;;;;;;;22.22;38.11;101745.06;5025043;28;20136;-56
2022/08/08 07:55:03;;;;;;;6.32;2.65;;;;;;;22.47;37.82;101743.69;5033018;28;20513;-56
2022/08/08 07:57:33;;;;;;;10.75;4.00;;;;;;;22.62;37.74;101752.16;5034412;28;20092;-58
2022/08/08 08:00:08;;;;;;;5.18;3.25;;;;;;;22.78;36.78;101745.38;5022831;28;20073;-55
2022/08/08 08:02:46;;;;;;;7.13;2.45;;;;;;;22.80;36.55;101751.47;5029883;28;20570;-58
2022/08/08 08:05:20;;;;;;;6.20;2.97;;;;;;;22.85;36.11;101751.88;5030434;28;20072;-52
2022/08/08 08:08:02;;;;;;;9.23;3.08;;;;;;;22.82;35.76;101753.00;5035810;28;20097;-58
2022/08/08 08:10:29;;;;;;;13.85;4.20;;;;;;;22.79;35.88;101755.16;5031437;28;20053;-59
2022/08/08 08:13:31;;;;;;;12.02;2.75;;;;;;;22.97;35.72;101753.47;5030006;28;20057;-52
2022/08/08 08:16:21;;;;;;;5.88;3.08;;;;;;;23.21;35.85;101761.88;5027764;28;20493;-51
2022/08/08 08:18:54;;;;;;;6.13;2.53;;;;;;;23.39;35.56;101753.91;5032077;28;20685;-51
2022/08/08 08:21:25;;;;;;;8.60;2.63;;;;;;;23.52;35.37;101752.75;5031759;28;20060;-51
2022/08/08 08:24:13;;;;;;;5.32;2.60;;;;;;;23.62;34.90;101756.22;5030778;28;20488;-53
2022/08/08 08:26:41;;;;;;;7.20;3.10;;;;;;;23.74;34.27;101755.94;5035246;28;20069;-52
2022/08/08 08:29:21;;;;;;;6.65;2.85;;;;;;;23.78;34.66;101763.72;5032838;28;20382;-51
2022/08/08 08:31:48;;;;;;;5.47;2.40;;;;;;;23.91;34.24;101754.28;5037780;28;20053;-51
2022/08/08 08:34:24;;;;;;;7.75;2.45;;;;;;;24.04;33.95;101755.75;5034320;28;20528;-52
2022/08/08 08:37:02;;;;;;;4.43;2.10;;;;;;;24.18;33.57;101756.13;5035612;28;20050;-56
2022/08/08 08:39:35;;;;;;;;;;;;;;;24.20;33.28;101754.09;5029581;28;20080;-59
2022/08/08 08:42:23;;;;;;;2.88;1.83;;;;;;;24.41;33.21;101758.41;5028029;28;20027;-56
2022/08/08 08:45:03;;;;;;;5.60;2.60;;;;;;;24.45;32.72;101765.13;5028902;28;20050;-53
2022/08/08 08:47:50;;;;;;;5.68;2.20;;;;;;;24.52;32.66;101765.38;5032448;28;20133;-55
2022/08/08 08:50:21;;;;;;;7.72;2.17;;;;;;;24.53;31.81;101767.06;5022003;28;20053;-54
2022/08/08 08:53:05;;;;;;;23.55;3.60;;;;;;;24.49;31.46;101766.53;5032316;28;20061;-57
2022/08/08 08:55:56;;;;;;;12.02;2.25;;;;;;;24.17;31.79;101757.09;5029558;28;20046;-57
2022/08/08 08:58:41;;;;;;;10.00;2.30;;;;;;;24.25;31.48;101759.88;5040147;28;20053;-55
2022/08/08 09:01:11;;;;;;;5.95;2.25;;;;;;;24.37;30.78;101757.00;5033249;28;20045;-55
2022/08/08 09:03:43;;;;;;;9.27;2.20;;;;;;;24.56;30.99;101761.38;5036199;28;20049;-56
2022/08/08 09:06:37;;;;;;;11.43;2.40;;;;;;;24.79;31.00;101759.06;5037829;28;20060;-53
2022/08/08 09:09:20;;;;;;;50.20;6.32;;;;;;;24.96;30.53;101764.44;5035172;28;20061;-54
2022/08/08 09:12:06;;;;;;;15.25;3.20;;;;;;;24.91;30.36;101763.22;5034879;28;20042;-53
2022/08/08 09:14:36;;;;;;;8.15;2.20;;;;;;;24.87;29.96;101754.59;5031490;28;20045;-57
2022/08/08 09:17:12;;;;;;;3.97;1.70;;;;;;;24.98;29.26;101765.09;5035458;28;20087;-55
2022/08/08 09:19:46;;;;;;;2.23;1.70;;;;;;;25.08;29.36;101756.09;5030645;28;20057;-58
2022/08/08 09:22:34;;;;;;;2.55;1.50;;;;;;;25.20;29.44;101749.47;5036343;28;20492;-58
2022/08/08 09:25:03;;;;;;;5.55;2.38;;;;;;;25.31;29.55;101759.13;5048257;22;20092;-60
2022/08/08 09:27:30;;;;;;;4.60;2.10;;;;;;;25.41;29.51;101754.47;5030513;28;20281;-60
2022/08/08 09:30:17;;;;;;;3.92;2.72;;;;;;;25.54;29.91;101754.03;5028969;28;20053;-61
2022/08/08 09:32:53;;;;;;;3.15;2.38;;;;;;;25.50;29.62;101750.81;5035778;28;20052;-60
2022/08/08 09:35:45;;;;;;;3.53;1.67;;;;;;;25.61;29.51;101742.44;5032714;28;20083;-59
2022/08/08 09:38:56;;;;;;;2.83;2.00;;;;;;;25.81;29.41;101739.53;5038532;28;20151;-60
2022/08/08 09:41:35;;;;;;;5.63;1.70;;;;;;;26.01;29.60;101740.94;4949142;28;20054;-55
2022/08/08 09:44:42;;;;;;;4.55;1.77;;;;;;;25.91;29.21;101740.22;4969729;28;20053;-60
2022/08/08 09:47:13;;;;;;;5.07;1.50;;;;;;;25.75;28.76;101740.97;5007251;28;20065;-60
2022/08/08 09:50:04;;;;;;;2.80;1.70;;;;;;;25.60;29.16;101745.31;5027217;28;20041;-59
2022/08/08 09:52:42;;;;;;;3.28;1.88;;;;;;;25.45;29.28;101748.59;5040709;28;20068;-60
2022/08/08 09:55:25;;;;;;;;;;;;;;;25.44;29.33;101748.75;5014135;28;20413;-60
2022/08/08 09:58:14;;;;;;;2.85;1.60;;;;;;;25.41;29.19;101743.69;5010482;28;20370;-60
2022/08/08 10:00:53;;;;;;;2.95;1.80;;;;;;;25.32;28.39;101737.41;5037705;28;20056;-61
2022/08/08 10:03:26;;;;;;;4.03;1.80;;;;;;;25.18;28.92;101741.53;5018731;28;20057;-61
2022/08/08 10:05:57;;;;;;;7.63;2.27;;;;;;;25.27;28.41;101734.34;5038403;28;20056;-61
2022/08/08 10:08:25;;;;;;;4.32;2.35;;;;;;;25.49;28.60;101736.50;5035712;28;20064;-60
2022/08/08 10:10:58;;;;;;;2.35;1.58;;;;;;;25.76;28.05;101742.72;5038582;28;20115;-60
2022/08/08 10:13:30;;;;;;;3.15;2.00;;;;;;;25.94;27.73;101737.22;5038291;28;20057;-60
2022/08/08 10:16:04;;;;;;;5.80;2.00;;;;;;;26.05;27.52;101739.59;5031853;28;20136;-61
2022/08/08 10:18:35;;;;;;;5.50;2.70;;;;;;;25.96;27.51;101737.88;5039263;28;20060;-60
2022/08/08 10:21:08;;;;;;;4.53;2.13;;;;;;;25.90;27.62;101742.09;5027482;28;21641;-59
2022/08/08 10:23:53;;;;;;;3.08;2.00;;;;;;;26.24;27.88;101733.06;5035396;28;20508;-60
2022/08/08 10:26:32;;;;;;;6.97;1.83;;;;;;;26.61;27.13;101734.47;5032060;28;20053;-61
2022/08/08 10:29:22;;;;;;;5.65;1.90;;;;;;;26.83;26.72;101730.25;5026832;28;20045;-60
2022/08/08 10:34:52;;;;;;;4.95;1.70;;;;;;;27.17;26.64;101728.22;5026920;28;20060;-59
2022/08/08 10:37:28;;;;;;;3.92;2.20;;;;;;;27.06;26.98;101724.97;5005567;28;20083;-60
2022/08/08 10:39:57;;;;;;;3.95;1.77;;;;;;;27.27;26.87;101726.13;5023118;28;20057;-60
2022/08/08 10:42:35;;;;;;;3.50;2.15;;;;;;;27.65;26.47;101720.97;5038315;28;20059;-60
2022/08/08 10:45:08;;;;;;;6.22;2.45;;;;;;;27.83;26.20;101711.75;5022267;28;20049;-61
2022/08/08 10:47:36;;;;;;;3.45;1.70;;;;;;;27.57;25.68;101718.28;5039723;28;20057;-61
2022/08/08 10:50:14;;;;;;;6.20;2.10;;;;;;;27.69;25.64;101713.31;5032705;28;20064;-61
2022/08/08 10:52:42;;;;;;;5.75;2.10;;;;;;;27.95;26.01;101715.75;5041185;28;20128;-60
2022/08/08 10:55:18;;;;;;;2.00;1.73;;;;;;;27.73;25.89;101714.69;5029825;28;20067;-57
2022/08/08 10:58:08;;;;;;;2.97;1.85;;;;;;;27.98;25.72;101710.00;5025529;28;20402;-60
2022/08/08 11:00:42;;;;;;;3.13;2.25;;;;;;;28.27;25.73;101709.28;5039239;28;20061;-59
2022/08/08 11:03:27;;;;;;;6.95;1.98;;;;;;;28.68;25.74;101714.38;5037312;28;20053;-58
2022/08/08 11:06:15;;;;;;;3.50;2.50;;;;;;;28.97;24.72;101711.78;5028964;28;20057;-60
2022/08/08 11:08:42;;;;;;;7.18;2.25;;;;;;;28.91;23.99;101717.06;5039159;28;20053;-59
2022/08/08 11:11:20;;;;;;;4.85;2.17;;;;;;;28.70;24.24;101710.50;5031601;28;20052;-61
2022/08/08 11:14:09;;;;;;;4.28;2.15;;;;;;;28.53;24.52;101719.78;5022083;28;20060;-59
2022/08/08 11:16:42;;;;;;;;;;;;;;;28.16;24.78;101715.97;5033870;28;20251;-61
2022/08/08 11:19:12;;;;;;;7.65;1.95;;;;;;;27.85;25.23;101707.00;5037044;28;19924;-61
2022/08/08 11:21:46;;;;;;;5.05;2.03;;;;;;;27.85;25.35;101709.72;5027113;28;20485;-60
2022/08/08 11:24:25;;;;;;;3.97;2.17;;;;;;;27.76;25.82;101709.75;5038277;28;20065;-61
2022/08/08 11:26:55;;;;;;;3.88;2.35;;;;;;;27.99;25.58;101707.09;5034945;28;20061;-61
2022/08/08 11:29:26;;;;;;;4.80;2.30;;;;;;;28.09;25.04;101711.44;5010087;28;20519;-60
2022/08/08 11:32:14;;;;;;;4.80;2.05;;;;;;;28.48;25.01;101714.91;5025040;28;20099;-60
2022/08/08 11:34:45;;;;;;;5.75;2.28;;;;;;;28.68;24.42;101708.97;5014497;28;20403;-59
2022/08/08 11:37:33;;;;;;;4.82;2.15;;;;;;;28.98;23.70;101710.75;5025630;28;20465;-59
2022/08/08 11:40:20;;;;;;;3.35;2.13;;;;;;;29.31;24.11;101701.41;5037892;28;20053;-60
2022/08/08 11:42:53;;;;;;;6.43;2.42;;;;;;;29.79;23.85;101702.69;5032842;28;20061;-61
2022/08/08 11:45:21;;;;;;;5.65;2.00;;;;;;;30.17;23.81;101695.22;5032933;28;20066;-60
2022/08/08 11:47:49;;;;;;;2.13;1.92;;;;;;;30.56;23.20;101695.78;5031378;28;20058;-60
2022/08/08 11:50:31;;;;;;;4.20;1.92;;;;;;;30.71;23.24;101702.84;5018097;28;20061;-60
2022/08/08 11:53:01;;;;;;;2.25;2.05;;;;;;;30.63;23.69;101696.69;5019066;28;20051;-61
2022/08/08 11:55:34;;;;;;;4.57;1.90;;;;;;;30.45;23.05;101698.00;5031046;28;20058;-61
2022/08/08 11:58:07;;;;;;;3.25;1.90;;;;;;;30.38;23.06;101693.53;5035232;28;20057;-61
2022/08/08 12:00:49;;;;;;;4.85;1.90;;;;;;;30.41;23.44;101698.56;5031836;28;20053;-60
2022/08/08 12:03:19;;;;;;;4.45;2.25;;;;;;;30.24;23.30;101706.13;5024754;28;20416;-59
2022/08/08 12:05:47;;;;;;;4.47;2.10;;;;;;;30.28;23.89;101704.72;5030240;28;20409;-61
2022/08/08 12:08:16;;;;;;;4.40;2.28;;;;;;;30.52;23.42;101698.88;5031555;28;20052;-60
2022/08/08 12:10:48;;;;;;;7.55;2.30;;;;;;;30.58;23.26;101699.97;5031618;28;20066;-59
2022/08/08 12:13:24;;;;;;;3.38;2.00;;;;;;;30.55;23.58;101694.09;5033117;28;20052;-60
2022/08/08 12:16:11;;;;;;;2.42;1.92;;;;;;;30.40;23.15;101692.31;5022745;28;20060;-61
2022/08/08 12:18:53;;;;;;;2.17;1.52;;;;;;;30.30;23.10;101702.63;5037594;28;20535;-61
2022/08/08 12:21:24;;;;;;;5.15;2.08;;;;;;;30.15;23.69;101700.00;5027295;28;20045;-61
2022/08/08 12:24:16;;;;;;;4.45;3.55;;;;;;;30.12;23.47;101696.78;5036755;28;20060;-61
2022/08/08 12:26:51;;;;;;;5.40;3.15;;;;;;;30.09;23.74;101702.63;5032344;28;20426;-61
2022/08/08 12:29:23;;;;;;;3.55;2.50;;;;;;;30.09;23.55;101692.59;5032185;28;20053;-61
2022/08/08 12:32:09;;;;;;;3.08;2.05;;;;;;;30.05;23.79;101685.88;5036538;28;20049;-61
2022/08/08 12:34:55;;;;;;;3.47;2.33;;;;;;;30.11;23.58;101693.22;5035163;28;20045;-60
2022/08/08 12:37:34;;;;;;;4.68;2.08;;;;;;;30.46;23.62;101693.38;5037318;28;20057;-61
2022/08/08 12:40:16;;;;;;;4.65;2.08;;;;;;;30.91;22.68;101694.81;5037365;28;20054;-61
2022/08/08 12:42:51;;;;;;;4.13;2.10;;;;;;;31.21;21.83;101691.88;5038279;28;20050;-58
2022/08/08 12:45:18;;;;;;;2.67;1.90;;;;;;;31.07;21.72;101699.09;5039259;28;20037;-61